Time;durP1;ratioP1;P1;durP2;ratioP2;P2;SDS_P1;SDS_P2;PMS_P1;PMS_P2;Temp;Humidity;BMP_temperature;BMP_pressure;BME280_temperature;BME280_humidity;BME280_pressure;Samples;Min_cycle;Max_cycle;Signal;HPM_P1;HPM_P2
2023/07/08 00:01:43;;;;;;;21.05;2.63;;;;;;;27.66;34.41;101314.47;4956465;28;20126;-62
2023/07/08 00:04:09;;;;;;;9.00;2.50;;;;;;;27.61;34.99;101306.88;4957855;28;20035;-61
2023/07/08 00:06:35;;;;;;;9.93;3.17;;;;;;;27.55;35.11;101304.22;4957365;28;20039;-64
2023/07/08 00:09:00;;;;;;;7.15;2.75;;;;;;;27.53;35.40;101306.31;4972322;28;20042;-62
2023/07/08 00:11:28;;;;;;;7.65;2.78;;;;;;;27.46;35.24;101295.41;4940243;28;20031;-62
2023/07/08 00:13:53;;;;;;;6.88;3.00;;;;;;;27.43;35.47;101297.78;4971922;28;20098;-62
2023/07/08 00:16:19;;;;;;;2.72;2.15;;;;;;;27.36;35.60;101308.81;4972576;28;20059;-61
2023/07/08 00:18:45;;;;;;;4.38;3.03;;;;;;;27.32;35.92;101304.00;4956190;28;20034;-61
2023/07/08 00:21:14;;;;;;;12.10;3.53;;;;;;;27.26;35.12;101294.75;4956005;28;20485;-62
2023/07/08 00:23:40;;;;;;;12.30;2.58;;;;;;;27.21;35.53;101294.59;4940414;28;20125;-62
2023/07/08 00:26:11;;;;;;;9.05;4.25;;;;;;;27.14;35.93;101296.53;4971821;28;20479;-62
2023/07/08 00:28:36;;;;;;;15.32;3.80;;;;;;;27.09;35.77;101294.47;4956067;28;20390;-62
2023/07/08 00:31:01;;;;;;;12.15;2.67;;;;;;;27.02;36.06;101290.13;4956700;28;20030;-62
2023/07/08 00:33:27;;;;;;;13.60;3.65;;;;;;;26.89;36.54;101270.97;4955951;28;20394;-62
2023/07/08 00:35:52;;;;;;;10.18;2.85;;;;;;;26.90;36.12;101295.50;4971958;28;20023;-61
2023/07/08 00:38:17;;;;;;;8.80;2.90;;;;;;;26.85;35.93;101289.84;4955699;28;20086;-62
2023/07/08 00:40:57;;;;;;;5.30;2.60;;;;;;;26.79;36.63;101288.00;4955450;28;20057;-61
2023/07/08 00:43:48;;;;;;;7.03;2.40;;;;;;;26.74;36.51;101293.28;4957082;28;20042;-61
2023/07/08 00:46:31;;;;;;;12.48;2.28;;;;;;;26.67;36.76;101286.97;4953872;28;20118;-63
2023/07/08 00:49:20;;;;;;;5.10;2.33;;;;;;;26.63;36.45;101299.50;4956725;28;20039;-63
2023/07/08 00:51:45;;;;;;;3.92;2.72;;;;;;;26.57;36.67;101283.91;4939260;29;20130;-61
2023/07/08 00:54:12;;;;;;;7.72;2.85;;;;;;;26.57;36.87;101297.66;4955979;28;20511;-62
2023/07/08 00:56:57;;;;;;;7.55;2.35;;;;;;;26.54;36.79;101289.84;4956157;28;20042;-61
2023/07/08 00:59:32;;;;;;;6.63;2.55;;;;;;;26.44;36.83;101281.22;4939273;29;20031;-61
2023/07/08 01:02:00;;;;;;;5.00;2.42;;;;;;;26.46;36.79;101292.88;4956574;28;20031;-62
2023/07/08 01:04:38;;;;;;;7.15;2.95;;;;;;;26.44;37.10;101284.81;4971115;28;20039;-61
2023/07/08 01:07:04;;;;;;;5.40;2.60;;;;;;;26.41;37.14;101281.69;4954981;28;20044;-61
2023/07/08 01:09:36;;;;;;;4.50;2.45;;;;;;;26.42;37.08;101291.59;4938731;28;20038;-63
2023/07/08 01:12:05;;;;;;;4.82;2.90;;;;;;;26.37;37.48;101288.69;4954954;28;20070;-62
2023/07/08 01:14:32;;;;;;;10.23;3.00;;;;;;;26.34;37.49;101278.13;4955117;28;20019;-62
2023/07/08 01:16:58;;;;;;;9.77;2.35;;;;;;;26.30;37.40;101283.22;4970998;28;20031;-61
2023/07/08 01:19:33;;;;;;;9.20;2.83;;;;;;;26.26;37.32;101286.66;4956269;28;20019;-62
2023/07/08 01:22:05;;;;;;;14.07;3.05;;;;;;;26.22;38.04;101286.22;4940098;28;20035;-62
2023/07/08 01:24:32;;;;;;;14.85;3.08;;;;;;;26.19;37.57;101280.34;4956048;28;20035;-63
2023/07/08 01:26:58;;;;;;;11.60;2.50;;;;;;;26.16;38.00;101286.28;4954647;28;20039;-63
2023/07/08 01:29:23;;;;;;;3.95;2.15;;;;;;;26.12;37.97;101283.09;4970512;28;20041;-63
2023/07/08 01:31:49;;;;;;;7.18;2.70;;;;;;;26.10;37.74;101289.88;4954493;28;20403;-61
2023/07/08 01:34:16;;;;;;;4.05;2.42;;;;;;;26.07;37.84;101282.09;4954638;28;20038;-62
2023/07/08 01:36:46;;;;;;;6.70;2.63;;;;;;;26.05;37.79;101279.53;4955896;28;20063;-63
2023/07/08 01:39:13;;;;;;;7.10;2.85;;;;;;;26.04;37.98;101288.84;4970564;28;20126;-62
2023/07/08 01:41:39;;;;;;;7.15;2.55;;;;;;;25.97;38.16;101274.31;4970620;28;20023;-61
2023/07/08 01:44:04;;;;;;;8.05;2.72;;;;;;;25.96;37.73;101273.44;4955870;28;20071;-62
2023/07/08 01:46:31;;;;;;;9.80;4.13;;;;;;;25.95;37.74;101279.19;4955556;28;20034;-62
2023/07/08 01:48:58;;;;;;;6.53;3.63;;;;;;;25.94;37.97;101280.22;4955611;28;20381;-64
2023/07/08 01:51:25;;;;;;;4.63;2.70;;;;;;;25.89;38.52;101272.66;4954374;28;20031;-62
2023/07/08 01:53:51;;;;;;;8.77;3.10;;;;;;;25.87;37.87;101277.53;4954254;28;20094;-62
2023/07/08 01:56:16;;;;;;;6.63;2.67;;;;;;;25.83;38.57;101270.78;4954360;28;20034;-62
2023/07/08 01:58:42;;;;;;;6.00;2.63;;;;;;;25.80;38.46;101270.38;4938200;29;20403;-61
2023/07/08 02:01:08;;;;;;;6.40;2.33;;;;;;;25.77;38.37;101265.31;4954440;28;20118;-62
2023/07/08 02:03:34;;;;;;;12.00;3.00;;;;;;;25.73;38.61;101264.94;4954560;28;20027;-62
2023/07/08 02:05:59;;;;;;;5.53;2.40;;;;;;;25.68;38.34;101258.41;4955433;28;20447;-62
2023/07/08 02:08:24;;;;;;;10.63;2.70;;;;;;;25.64;38.63;101254.41;4955451;28;20039;-62
2023/07/08 02:11:00;;;;;;;6.88;3.08;;;;;;;25.59;38.86;101249.56;4954982;28;20515;-62
2023/07/08 02:13:25;;;;;;;8.68;2.63;;;;;;;25.55;38.76;101251.03;4953892;28;20066;-63
2023/07/08 02:15:51;;;;;;;8.50;2.88;;;;;;;25.50;39.14;101250.00;4955140;28;20037;-62
2023/07/08 02:18:18;;;;;;;14.82;2.50;;;;;;;25.45;38.61;101247.91;4969809;28;20406;-62
2023/07/08 02:20:44;;;;;;;13.13;3.58;;;;;;;25.40;38.56;101247.72;4969799;28;20035;-62
2023/07/08 02:23:10;;;;;;;15.68;3.15;;;;;;;25.34;39.47;101248.56;4969776;28;20066;-62
2023/07/08 02:25:35;;;;;;;24.42;3.40;;;;;;;25.29;38.95;101251.94;4955360;28;20039;-62
2023/07/08 02:28:00;;;;;;;6.85;3.03;;;;;;;25.26;39.12;101243.31;4953597;28;20101;-62
2023/07/08 02:30:26;;;;;;;4.82;2.45;;;;;;;25.21;39.49;101254.09;4954831;28;20046;-62
2023/07/08 02:32:56;;;;;;;7.28;2.65;;;;;;;25.18;39.44;101240.81;4953775;28;20046;-62
2023/07/08 02:35:25;;;;;;;4.40;2.60;;;;;;;25.17;39.16;101245.44;4953753;28;20039;-62
2023/07/08 02:37:50;;;;;;;5.38;2.35;;;;;;;25.14;39.49;101242.28;4969653;28;20031;-62
2023/07/08 02:40:16;;;;;;;6.63;2.45;;;;;;;25.13;39.90;101246.06;4969869;28;20054;-62
2023/07/08 02:42:41;;;;;;;5.07;2.53;;;;;;;25.10;39.32;101241.03;4953904;28;20039;-61
2023/07/08 02:45:07;;;;;;;5.18;2.65;;;;;;;25.08;39.60;101248.63;4954729;28;20133;-61
2023/07/08 02:47:33;;;;;;;4.35;2.63;;;;;;;25.09;39.49;101248.41;4937381;29;20035;-62
2023/07/08 02:49:58;;;;;;;8.20;2.70;;;;;;;25.10;39.98;101246.53;4954441;28;20098;-61
2023/07/08 02:52:23;;;;;;;6.25;2.92;;;;;;;25.11;39.81;101243.56;4953479;28;20063;-61
2023/07/08 02:54:49;;;;;;;5.38;2.78;;;;;;;25.17;39.67;101264.66;4969491;28;20047;-62
2023/07/08 02:57:14;;;;;;;7.10;2.85;;;;;;;25.23;40.46;101257.47;4969235;28;20473;-62
2023/07/08 02:59:39;;;;;;;5.00;2.85;;;;;;;25.27;39.88;101255.94;4954690;28;20028;-62
2023/07/08 03:02:05;;;;;;;3.95;2.38;;;;;;;25.29;40.13;101257.41;4954545;28;20031;-62
2023/07/08 03:04:30;;;;;;;5.57;2.70;;;;;;;25.30;40.02;101253.63;4954280;28;20039;-61
2023/07/08 03:06:56;;;;;;;10.70;3.05;;;;;;;25.33;40.11;101255.09;4953432;28;20046;-61
2023/07/08 03:09:21;;;;;;;4.90;2.53;;;;;;;25.34;40.19;101248.56;4954303;28;20431;-61
2023/07/08 03:11:47;;;;;;;7.47;3.00;;;;;;;25.34;39.63;101254.91;4937382;29;20027;-64
2023/07/08 03:14:12;;;;;;;11.40;3.13;;;;;;;25.34;40.16;101262.28;4954529;28;20035;-63
2023/07/08 03:16:37;;;;;;;14.00;3.75;;;;;;;25.31;40.44;101257.22;4954523;28;20585;-61
2023/07/08 03:19:04;;;;;;;13.88;3.30;;;;;;;25.30;39.75;101269.25;4939635;29;20051;-61
2023/07/08 03:21:29;;;;;;;15.82;3.97;;;;;;;25.24;40.02;101259.13;4957026;28;20109;-61
2023/07/08 03:23:55;;;;;;;13.00;3.05;;;;;;;25.21;39.99;101259.59;4958286;28;20521;-62
2023/07/08 03:26:23;;;;;;;8.73;3.13;;;;;;;25.16;40.27;101267.59;4958541;28;20027;-61
2023/07/08 03:28:48;;;;;;;6.82;3.08;;;;;;;25.12;40.41;101258.13;4958439;28;20035;-61
2023/07/08 03:31:14;;;;;;;6.38;3.05;;;;;;;25.10;40.08;101265.72;4956879;28;20097;-61
2023/07/08 03:33:39;;;;;;;6.13;2.45;;;;;;;25.06;40.72;101267.19;4958193;28;20066;-62
2023/07/08 03:36:11;;;;;;;6.50;2.83;;;;;;;25.05;40.64;101270.97;4957769;28;20042;-61
2023/07/08 03:38:37;;;;;;;4.50;2.90;;;;;;;25.02;40.60;101275.00;4972604;28;20622;-61
2023/07/08 03:41:03;;;;;;;6.80;2.80;;;;;;;25.04;40.33;101277.53;4940787;29;20130;-62
2023/07/08 03:43:29;;;;;;;4.38;2.67;;;;;;;25.02;40.86;101271.41;4956739;28;20063;-62
2023/07/08 03:45:54;;;;;;;7.18;3.35;;;;;;;25.02;40.41;101280.47;4956875;28;20412;-61
2023/07/08 03:48:19;;;;;;;10.02;3.53;;;;;;;25.00;40.61;101277.09;4972542;28;20118;-62
2023/07/08 03:50:45;;;;;;;6.78;3.22;;;;;;;24.97;40.50;101280.28;4957441;28;20046;-62
2023/07/08 03:53:10;;;;;;;15.48;2.58;;;;;;;24.95;40.43;101276.91;4956475;28;20035;-62
2023/07/08 03:55:36;;;;;;;10.18;3.65;;;;;;;24.90;41.04;101272.03;4956147;28;20118;-62
2023/07/08 03:58:01;;;;;;;10.27;2.92;;;;;;;24.88;40.85;101270.56;4942854;28;20032;-63
2023/07/08 04:00:27;;;;;;;6.43;3.17;;;;;;;24.84;40.42;101269.31;4938383;28;20112;-62
2023/07/08 04:02:52;;;;;;;4.25;2.67;;;;;;;24.84;40.61;101274.81;4938352;28;20035;-62
2023/07/08 04:05:19;;;;;;;7.70;3.28;;;;;;;24.80;40.98;101274.38;4953059;28;20091;-62
2023/07/08 04:07:45;;;;;;;7.28;3.22;;;;;;;24.81;41.19;101281.56;4937000;28;20051;-62
2023/07/08 04:10:11;;;;;;;6.15;3.17;;;;;;;24.81;41.21;101280.72;4937017;28;20032;-62
2023/07/08 04:12:37;;;;;;;5.32;3.25;;;;;;;24.82;40.85;101277.75;4937098;28;20034;-62
2023/07/08 04:15:03;;;;;;;8.50;2.97;;;;;;;24.82;41.20;101280.47;4921004;29;20038;-62
2023/07/08 04:17:28;;;;;;;5.78;2.78;;;;;;;24.79;40.86;101278.16;4938160;28;20066;-62
2023/07/08 04:19:56;;;;;;;6.43;2.45;;;;;;;24.81;40.76;101278.81;4936797;28;20028;-62
2023/07/08 04:22:21;;;;;;;5.40;2.92;;;;;;;24.82;40.77;101275.00;4921215;29;20075;-63
2023/07/08 04:24:47;;;;;;;9.25;3.17;;;;;;;24.83;40.96;101270.38;4938153;28;20448;-62
2023/07/08 04:27:16;;;;;;;6.85;3.50;;;;;;;24.83;41.00;101268.47;4938006;28;20499;-63
2023/07/08 04:29:43;;;;;;;8.25;3.13;;;;;;;24.84;41.71;101264.69;4936534;28;20032;-62
2023/07/08 04:32:08;;;;;;;5.93;3.30;;;;;;;24.84;41.00;101264.69;4920911;29;20039;-62
2023/07/08 04:34:33;;;;;;;4.47;2.70;;;;;;;24.86;41.46;101262.56;4936524;28;20040;-63
2023/07/08 04:36:59;;;;;;;7.20;3.25;;;;;;;24.89;41.00;101270.38;4937960;28;20040;-62
2023/07/08 04:39:24;;;;;;;8.13;3.30;;;;;;;24.90;41.07;101266.56;4937746;28;20051;-63
2023/07/08 04:41:49;;;;;;;8.25;3.45;;;;;;;24.93;41.20;101264.47;4936526;28;20055;-62
2023/07/08 04:44:18;;;;;;;9.48;3.53;;;;;;;24.98;41.28;101265.53;4937558;28;20127;-63
2023/07/08 04:46:50;;;;;;;4.28;2.55;;;;;;;25.03;41.14;101270.34;4937547;28;20055;-62
2023/07/08 04:49:16;;;;;;;6.90;3.20;;;;;;;25.12;41.30;101272.66;4936340;28;20496;-62
2023/07/08 04:51:42;;;;;;;9.10;3.13;;;;;;;25.15;40.94;101276.88;4937463;28;20087;-63
2023/07/08 04:54:07;;;;;;;7.25;2.85;;;;;;;25.16;41.43;101273.91;4936088;28;20039;-62
2023/07/08 04:56:39;;;;;;;5.18;3.08;;;;;;;25.25;41.18;101272.63;4937412;28;20038;-62
2023/07/08 04:59:07;;;;;;;8.15;3.28;;;;;;;25.30;41.40;101270.09;4955000;28;20126;-62
2023/07/08 05:01:32;;;;;;;6.28;3.47;;;;;;;25.34;41.12;101267.78;4939235;28;20027;-62
2023/07/08 05:03:59;;;;;;;4.60;3.38;;;;;;;25.38;41.07;101266.25;4956876;28;20043;-62
2023/07/08 05:06:24;;;;;;;7.25;3.58;;;;;;;25.48;41.27;101263.97;4955237;28;20434;-63
2023/07/08 05:08:50;;;;;;;5.90;3.40;;;;;;;25.65;40.43;101261.59;4956260;28;20159;-63
2023/07/08 05:11:15;;;;;;;8.27;3.60;;;;;;;25.86;40.31;101262.09;4954980;28;20395;-62
2023/07/08 05:13:40;;;;;;;8.45;3.67;;;;;;;26.04;40.50;101267.72;4954998;28;20039;-62
2023/07/08 05:16:06;;;;;;;6.75;3.50;;;;;;;26.25;40.34;101257.47;4955385;28;20061;-62
2023/07/08 05:18:31;;;;;;;11.93;3.60;;;;;;;26.42;40.00;101262.22;4939275;28;20033;-62
2023/07/08 05:20:57;;;;;;;8.70;3.58;;;;;;;26.57;39.83;101256.41;4956069;28;20082;-62
2023/07/08 05:23:22;;;;;;;12.95;4.93;;;;;;;26.77;39.90;101268.09;4956357;28;20499;-63
2023/07/08 05:25:48;;;;;;;7.40;3.90;;;;;;;26.92;39.68;101265.88;4954775;28;20031;-62
2023/07/08 05:28:13;;;;;;;7.82;3.92;;;;;;;27.10;38.93;101268.66;4956072;28;20034;-62
2023/07/08 05:30:41;;;;;;;7.72;3.70;;;;;;;27.28;39.29;101267.81;4954543;28;20076;-63
2023/07/08 05:33:08;;;;;;;13.73;4.90;;;;;;;27.46;39.51;101269.78;4938644;28;20171;-63
2023/07/08 05:35:33;;;;;;;7.63;3.85;;;;;;;27.62;38.90;101264.50;4956013;28;20078;-62
2023/07/08 05:37:58;;;;;;;6.70;4.20;;;;;;;27.80;38.78;101262.81;4955815;28;20039;-62
2023/07/08 05:40:24;;;;;;;8.13;3.78;;;;;;;28.00;37.97;101269.72;4955343;28;20055;-62
2023/07/08 05:42:49;;;;;;;9.43;4.35;;;;;;;28.18;37.99;101261.47;4955864;28;20039;-62
2023/07/08 05:45:14;;;;;;;6.13;3.65;;;;;;;28.39;38.48;101262.84;4954463;28;20050;-63
2023/07/08 05:47:40;;;;;;;8.38;4.30;;;;;;;28.57;37.77;101271.03;4955667;28;20062;-63
2023/07/08 05:50:06;;;;;;;9.13;4.13;;;;;;;28.78;37.29;101269.69;4954055;28;20063;-62
2023/07/08 05:52:31;;;;;;;8.27;4.03;;;;;;;28.96;37.62;101266.78;4970211;28;20038;-62
2023/07/08 05:54:56;;;;;;;7.70;4.22;;;;;;;29.14;37.12;101268.59;4956089;28;20035;-63
2023/07/08 05:57:23;;;;;;;8.60;4.53;;;;;;;29.34;37.11;101271.88;4954419;28;20090;-62
2023/07/08 05:59:50;;;;;;;9.15;4.43;;;;;;;29.47;37.15;101265.25;4954252;28;20451;-63
2023/07/08 06:02:16;;;;;;;8.88;4.43;;;;;;;29.63;37.43;101272.75;4954127;28;20058;-63
2023/07/08 06:04:42;;;;;;;11.55;5.15;;;;;;;29.77;36.97;101269.50;4955601;28;20480;-63
2023/07/08 06:07:07;;;;;;;9.38;4.45;;;;;;;29.92;36.84;101274.53;4955358;28;20066;-63
2023/07/08 06:09:32;;;;;;;12.80;4.75;;;;;;;30.11;36.92;101277.94;4955385;28;20498;-62
2023/07/08 06:11:58;;;;;;;11.48;4.63;;;;;;;30.27;36.48;101271.59;4953909;28;20035;-63
2023/07/08 06:14:23;;;;;;;9.00;4.38;;;;;;;30.49;36.36;101264.28;4955152;28;20059;-62
2023/07/08 06:16:48;;;;;;;13.15;4.47;;;;;;;30.72;36.15;101264.16;4955364;28;20047;-63
2023/07/08 06:19:14;;;;;;;11.43;4.55;;;;;;;30.92;35.84;101258.09;4955019;28;20062;-63
2023/07/08 06:21:40;;;;;;;8.15;4.45;;;;;;;31.12;36.02;101258.47;4953875;28;20039;-63
2023/07/08 06:24:06;;;;;;;8.82;4.55;;;;;;;31.30;35.81;101258.16;4938779;29;20455;-63
2023/07/08 06:26:31;;;;;;;13.93;5.22;;;;;;;31.46;35.43;101260.06;4949578;28;20043;-62
2023/07/08 06:28:57;;;;;;;13.40;5.07;;;;;;;31.62;35.05;101264.72;4918659;29;20587;-63
2023/07/08 06:31:22;;;;;;;12.35;4.43;;;;;;;31.79;34.97;101269.38;4934512;28;20040;-63
2023/07/08 06:33:47;;;;;;;9.25;4.18;;;;;;;31.94;34.57;101261.25;4935710;28;20412;-63
2023/07/08 06:36:13;;;;;;;9.98;5.10;;;;;;;32.07;34.24;101258.09;4950158;28;20032;-63
2023/07/08 06:38:38;;;;;;;8.75;4.43;;;;;;;32.23;34.28;101259.91;4935405;28;20028;-63
2023/07/08 06:41:03;;;;;;;7.60;4.28;;;;;;;32.41;33.06;101262.34;4934474;28;20031;-63
2023/07/08 06:43:29;;;;;;;8.25;4.82;;;;;;;32.57;33.77;101261.41;4935721;28;20484;-63
2023/07/08 06:45:54;;;;;;;8.52;4.30;;;;;;;32.76;33.01;101270.16;4934367;28;20123;-63
2023/07/08 06:48:19;;;;;;;8.60;4.95;;;;;;;32.95;33.37;101273.34;4935777;28;20484;-63
2023/07/08 06:50:48;;;;;;;9.35;4.68;;;;;;;33.09;33.51;101282.94;4934207;28;20059;-63
2023/07/08 06:53:14;;;;;;;9.15;4.80;;;;;;;33.21;33.08;101283.56;4933623;28;20035;-62
2023/07/08 06:55:40;;;;;;;8.23;4.47;;;;;;;33.36;32.15;101295.59;4934449;28;20072;-63
2023/07/08 06:58:05;;;;;;;10.00;5.13;;;;;;;33.50;32.22;101289.59;4936460;28;20448;-63
2023/07/08 07:00:31;;;;;;;8.30;4.88;;;;;;;33.64;32.39;101282.47;4935616;29;20447;-63
2023/07/08 07:02:56;;;;;;;10.60;5.03;;;;;;;33.89;32.10;101296.47;4936941;28;20031;-63
2023/07/08 07:05:21;;;;;;;7.53;4.80;;;;;;;34.06;31.88;101285.13;4934349;28;20040;-63
2023/07/08 07:07:47;;;;;;;8.85;4.38;;;;;;;34.22;31.81;101290.50;4935690;28;20054;-62
2023/07/08 07:10:12;;;;;;;12.23;5.10;;;;;;;34.37;31.61;101284.09;4935603;28;20436;-62
2023/07/08 07:12:37;;;;;;;7.75;4.43;;;;;;;34.53;31.54;101280.25;4927688;28;20042;-63
2023/07/08 07:15:04;;;;;;;9.25;4.50;;;;;;;34.74;31.07;101281.94;4934116;28;20496;-62
2023/07/08 07:17:29;;;;;;;9.88;5.00;;;;;;;34.91;30.85;101282.50;4935762;28;20027;-62
2023/07/08 07:19:55;;;;;;;10.73;5.20;;;;;;;35.11;31.38;101280.84;4935198;28;20032;-61
2023/07/08 07:22:20;;;;;;;8.30;5.10;;;;;;;35.23;30.74;101273.03;4936557;28;20047;-61
2023/07/08 07:24:46;;;;;;;8.57;4.82;;;;;;;35.36;30.90;101266.84;4936011;28;20036;-62
2023/07/08 07:27:12;;;;;;;10.48;5.10;;;;;;;35.54;30.88;101266.25;4934326;28;20043;-62
2023/07/08 07:29:45;;;;;;;11.00;4.75;;;;;;;35.71;30.53;101269.53;4934233;28;20103;-61
2023/07/08 07:32:11;;;;;;;9.85;5.43;;;;;;;35.88;30.31;101269.19;4942994;28;20122;-62
2023/07/08 07:34:38;;;;;;;10.65;4.97;;;;;;;36.03;30.26;101261.63;4954313;29;20031;-62
2023/07/08 07:37:03;;;;;;;11.95;4.75;;;;;;;36.23;29.93;101260.66;4941318;29;20408;-62
2023/07/08 07:39:29;;;;;;;10.23;5.63;;;;;;;36.43;29.83;101265.28;4975131;28;20145;-62
2023/07/08 07:41:56;;;;;;;7.80;5.03;;;;;;;36.62;29.88;101266.25;4944618;29;20586;-61
2023/07/08 07:44:21;;;;;;;9.40;4.90;;;;;;;36.83;29.37;101259.38;4959830;29;20039;-62
2023/07/08 07:46:47;;;;;;;9.75;5.10;;;;;;;37.02;28.77;101259.50;4958721;28;20046;-62
2023/07/08 07:49:12;;;;;;;8.68;4.88;;;;;;;37.23;28.46;101266.53;4956829;28;20541;-62
2023/07/08 07:51:38;;;;;;;7.80;4.32;;;;;;;37.41;28.29;101262.16;4939041;29;20086;-62
2023/07/08 07:54:03;;;;;;;8.10;5.40;;;;;;;37.54;28.57;101267.91;4954155;29;20086;-62
2023/07/08 07:56:28;;;;;;;6.95;4.55;;;;;;;37.67;28.10;101269.97;4970729;28;20414;-62
2023/07/08 07:58:54;;;;;;;9.52;4.85;;;;;;;37.84;28.39;101269.47;4934787;29;20083;-61
2023/07/08 08:01:19;;;;;;;8.18;4.57;;;;;;;37.99;28.13;101269.31;4943702;28;20102;-61
2023/07/08 08:03:45;;;;;;;10.90;5.05;;;;;;;38.15;28.08;101259.56;4953706;28;20051;-63
2023/07/08 08:06:10;;;;;;;9.55;4.72;;;;;;;38.34;28.22;101263.19;4940532;29;20087;-63
2023/07/08 08:08:36;;;;;;;11.15;5.40;;;;;;;38.53;28.22;101260.38;4940329;29;20051;-61
2023/07/08 08:11:01;;;;;;;10.57;5.43;;;;;;;38.72;26.65;101260.38;4957572;28;20061;-62
2023/07/08 08:13:27;;;;;;;9.55;4.78;;;;;;;38.94;27.17;101260.56;4956597;29;20492;-62
2023/07/08 08:15:57;;;;;;;7.40;4.50;;;;;;;39.16;27.18;101263.50;4940358;29;20042;-62
2023/07/08 08:18:22;;;;;;;10.10;4.80;;;;;;;39.35;27.37;101271.84;4937277;29;20038;-62
2023/07/08 08:20:50;;;;;;;8.05;4.70;;;;;;;39.53;26.70;101274.56;4948041;28;20047;-62
2023/07/08 08:23:16;;;;;;;9.45;4.80;;;;;;;39.68;26.74;101269.81;4956313;29;20058;-62
2023/07/08 08:25:41;;;;;;;7.00;4.50;;;;;;;39.88;26.52;101278.63;4957426;28;20043;-63
2023/07/08 08:28:07;;;;;;;14.65;4.78;;;;;;;40.03;26.34;101271.84;4956068;29;20047;-62
2023/07/08 08:30:32;;;;;;;7.95;4.93;;;;;;;40.20;26.40;101288.91;4972289;28;20031;-62
2023/07/08 08:32:58;;;;;;;7.78;5.18;;;;;;;40.36;26.35;101287.38;4955915;28;20060;-62
2023/07/08 08:35:23;;;;;;;6.32;4.90;;;;;;;40.52;26.39;101285.91;4955937;28;20495;-62
2023/07/08 08:37:49;;;;;;;8.63;4.65;;;;;;;40.67;26.07;101282.72;4955796;29;20384;-62
2023/07/08 08:40:18;;;;;;;7.78;5.05;;;;;;;40.83;25.56;101279.50;4923808;29;20040;-61
2023/07/08 08:42:48;;;;;;;9.10;4.50;;;;;;;40.99;25.63;101283.59;4955816;29;20031;-62
2023/07/08 08:45:17;;;;;;;12.98;5.15;;;;;;;41.15;25.43;101276.44;4955683;28;20039;-62
2023/07/08 08:47:45;;;;;;;8.02;4.57;;;;;;;41.32;25.00;101282.19;4971792;28;20036;-62
2023/07/08 08:50:28;;;;;;;8.07;4.65;;;;;;;41.53;24.73;101276.78;4955491;28;20027;-62
2023/07/08 08:52:55;;;;;;;7.35;4.45;;;;;;;41.70;25.03;101274.03;4956894;28;20039;-61
2023/07/08 08:55:23;;;;;;;6.95;4.00;;;;;;;41.85;25.12;101278.41;4923641;29;20043;-62
2023/07/08 08:58:11;;;;;;;7.57;4.38;;;;;;;42.02;24.47;101278.44;4955546;29;20090;-63
2023/07/08 09:00:56;;;;;;;10.35;4.63;;;;;;;42.24;24.42;101286.78;4956870;28;20031;-62
2023/07/08 09:03:42;;;;;;;10.38;4.63;;;;;;;42.40;24.35;101279.50;4955717;28;20066;-62
2023/07/08 09:06:14;;;;;;;8.10;4.43;;;;;;;42.54;24.30;101274.50;4956561;28;20121;-62
2023/07/08 09:08:40;;;;;;;6.38;4.25;;;;;;;42.64;23.97;101274.19;4956746;28;20607;-61
2023/07/08 09:11:11;;;;;;;9.07;4.32;;;;;;;42.77;24.08;101269.53;4955193;29;20133;-62
2023/07/08 09:13:37;;;;;;;10.15;4.80;;;;;;;42.93;24.03;101259.38;4956328;28;20110;-62
2023/07/08 09:16:05;;;;;;;7.90;4.15;;;;;;;43.07;24.27;101259.19;4954443;28;20566;-62
2023/07/08 09:18:36;;;;;;;7.45;4.85;;;;;;;43.21;23.91;101248.53;4956369;28;20035;-62
2023/07/08 09:21:06;;;;;;;8.90;5.07;;;;;;;43.31;23.54;101254.63;4955224;28;20081;-61
2023/07/08 09:23:33;;;;;;;9.25;4.70;;;;;;;43.41;23.64;101253.47;4955192;29;20035;-62
2023/07/08 09:26:04;;;;;;;7.22;4.22;;;;;;;43.48;23.21;101246.09;4956449;28;20042;-62
2023/07/08 09:28:41;;;;;;;7.68;4.03;;;;;;;43.61;23.28;101255.47;4954942;29;20043;-62
2023/07/08 09:31:09;;;;;;;8.65;4.05;;;;;;;43.72;23.32;101253.13;4938777;29;20507;-61
2023/07/08 09:33:38;;;;;;;8.40;4.05;;;;;;;43.76;22.96;101254.94;4938928;29;20431;-62
2023/07/08 09:36:16;;;;;;;6.05;4.28;;;;;;;43.87;22.32;101250.53;4954830;29;20035;-62
2023/07/08 09:38:41;;;;;;;5.78;4.03;;;;;;;43.99;22.78;101259.09;4954942;28;20042;-62
2023/07/08 09:41:08;;;;;;;9.43;4.88;;;;;;;44.12;22.55;101253.50;4956283;29;20039;-61
2023/07/08 09:43:37;;;;;;;7.35;4.32;;;;;;;44.21;22.24;101251.47;4960577;28;20049;-61
2023/07/08 09:46:03;;;;;;;7.47;3.90;;;;;;;44.31;22.54;101254.72;4940553;29;20039;-62
2023/07/08 09:48:34;;;;;;;7.38;4.57;;;;;;;44.40;22.21;101257.47;4955815;29;20039;-62
2023/07/08 09:50:59;;;;;;;6.72;4.53;;;;;;;44.55;22.19;101259.69;4955276;29;20036;-62
2023/07/08 09:53:26;;;;;;;4.95;3.78;;;;;;;44.67;21.53;101262.56;4954509;28;20571;-62
2023/07/08 09:55:52;;;;;;;11.75;4.43;;;;;;;44.83;21.67;101257.91;4938547;29;20050;-62
2023/07/08 09:58:27;;;;;;;9.90;3.95;;;;;;;45.00;21.89;101249.25;4938465;29;20062;-63
2023/07/08 10:00:59;;;;;;;8.25;4.38;;;;;;;45.28;21.50;101254.28;4938384;29;20086;-62
2023/07/08 10:03:33;;;;;;;9.48;4.65;;;;;;;45.66;21.16;101255.59;4938301;29;20554;-62
2023/07/08 10:06:03;;;;;;;15.63;14.13;;;;;;;46.17;21.23;101259.66;4938089;28;20046;-63
2023/07/08 10:08:38;;;;;;;66.20;62.87;;;;;;;46.85;20.58;101265.31;4954309;28;20026;-62
2023/07/08 10:11:10;;;;;;;33.17;30.88;;;;;;;47.64;20.33;101266.22;4954232;28;20319;-63
2023/07/08 10:13:42;;;;;;;7.18;4.63;;;;;;;48.69;19.90;101262.13;4955387;28;20463;-62
2023/07/08 10:16:10;;;;;;;8.18;4.82;;;;;;;49.69;18.89;101262.75;4954180;28;20479;-62
2023/07/08 10:18:36;;;;;;;9.35;4.68;;;;;;;50.00;18.46;101267.31;4955336;28;20062;-63
2023/07/08 10:21:13;;;;;;;6.50;4.72;;;;;;;49.50;18.50;101274.22;4950963;28;20492;-64
2023/07/08 10:23:59;;;;;;;7.10;4.75;;;;;;;49.06;19.36;101270.19;4941696;29;20031;-63
2023/07/08 10:26:28;;;;;;;9.25;4.55;;;;;;;48.55;19.60;101263.88;4950848;28;20040;-63
2023/07/08 10:29:18;;;;;;;6.43;5.25;;;;;;;48.19;19.46;101260.22;4944410;29;20031;-62
2023/07/08 10:31:56;;;;;;;6.05;5.45;;;;;;;48.03;19.81;101250.91;4934613;28;20111;-62
2023/07/08 10:34:37;;;;;;;5.82;4.30;;;;;;;48.05;19.70;101264.78;4949530;29;20093;-62
2023/07/08 10:37:21;;;;;;;7.63;5.32;;;;;;;48.11;19.97;101251.91;4954983;28;20035;-61
2023/07/08 10:40:14;;;;;;;6.90;4.75;;;;;;;48.21;19.71;101257.03;4954427;28;20515;-61
2023/07/08 10:42:55;;;;;;;8.82;5.32;;;;;;;48.22;19.76;101264.38;4953724;28;20043;-61
2023/07/08 10:45:31;;;;;;;11.73;5.83;;;;;;;48.20;19.76;101264.72;4953442;28;20508;-62
2023/07/08 10:48:18;;;;;;;7.28;5.00;;;;;;;48.28;19.81;101269.38;4934698;28;20120;-62
2023/07/08 10:50:56;;;;;;;6.65;5.95;;;;;;;48.48;19.65;101262.50;4945018;28;20458;-61
2023/07/08 10:53:24;;;;;;;7.68;5.20;;;;;;;48.62;19.31;101273.38;4953888;28;20130;-62
2023/07/08 10:55:59;;;;;;;7.75;5.40;;;;;;;48.81;19.33;101269.66;4954758;28;20066;-62
2023/07/08 10:58:52;;;;;;;7.57;5.47;;;;;;;49.02;19.14;101253.03;4934681;28;20460;-63
2023/07/08 11:01:18;;;;;;;13.35;5.43;;;;;;;49.18;18.99;101265.09;4935376;29;20032;-62
2023/07/08 11:04:01;;;;;;;7.53;5.85;;;;;;;49.32;18.92;101256.81;4954669;28;20041;-62
2023/07/08 11:06:43;;;;;;;8.85;6.10;;;;;;;49.42;18.63;101256.16;4954350;28;20043;-63
2023/07/08 11:09:13;;;;;;;7.38;4.85;;;;;;;49.51;18.69;101261.59;4953513;29;20114;-62
2023/07/08 11:11:40;;;;;;;9.68;5.25;;;;;;;49.60;18.49;101255.66;4937710;29;20039;-62
2023/07/08 11:14:20;;;;;;;7.13;4.72;;;;;;;49.71;18.36;101251.78;4937207;29;20038;-62
2023/07/08 11:16:52;;;;;;;11.50;4.53;;;;;;;49.82;18.44;101246.22;4953480;29;20452;-67
2023/07/08 11:19:28;;;;;;;8.52;4.82;;;;;;;49.88;18.26;101227.59;5003652;23;20074;-83
2023/07/08 11:21:55;;;;;;;6.95;4.97;;;;;;;50.06;18.25;101245.81;4985319;23;20044;-67
2023/07/08 11:24:50;;;;;;;6.45;4.65;;;;;;;50.23;18.12;101242.34;4933876;29;20063;-66
2023/07/08 11:27:19;;;;;;;6.22;4.20;;;;;;;50.31;18.19;101241.28;4934135;29;20082;-66
2023/07/08 11:29:48;;;;;;;8.30;4.57;;;;;;;50.34;17.87;101234.75;4935344;28;20090;-66